sensor_id;sensor_type;location;lat;lon;timestamp;temperature;humidity
6333;DHT22;3199;49.102;8.856;2023-12-20T00:01:46;5.40;99.90
6333;DHT22;3199;49.102;8.856;2023-12-20T00:04:12;5.40;99.90
6333;DHT22;3199;49.102;8.856;2023-12-20T00:06:37;5.40;99.90
6333;DHT22;3199;49.102;8.856;2023-12-20T00:09:03;5.40;99.90
6333;DHT22;3199;49.102;8.856;2023-12-20T00:11:29;5.40;99.90
6333;DHT22;3199;49.102;8.856;2023-12-20T00:13:54;5.40;99.90
6333;DHT22;3199;49.102;8.856;2023-12-20T00:16:20;5.40;99.90
6333;DHT22;3199;49.102;8.856;2023-12-20T00:18:45;5.40;99.90
6333;DHT22;3199;49.102;8.856;2023-12-20T00:21:11;5.40;99.90
6333;DHT22;3199;49.102;8.856;2023-12-20T00:23:36;5.30;99.90
6333;DHT22;3199;49.102;8.856;2023-12-20T00:26:02;5.30;99.90
6333;DHT22;3199;49.102;8.856;2023-12-20T00:28:27;5.30;99.90
6333;DHT22;3199;49.102;8.856;2023-12-20T00:30:53;5.30;99.90
6333;DHT22;3199;49.102;8.856;2023-12-20T00:33:19;5.30;99.90
6333;DHT22;3199;49.102;8.856;2023-12-20T00:35:44;5.30;99.90
6333;DHT22;3199;49.102;8.856;2023-12-20T00:38:10;5.30;99.90
6333;DHT22;3199;49.102;8.856;2023-12-20T00:40:36;5.30;99.90
6333;DHT22;3199;49.102;8.856;2023-12-20T00:43:02;5.30;99.90
6333;DHT22;3199;49.102;8.856;2023-12-20T00:45:28;5.30;99.90
6333;DHT22;3199;49.102;8.856;2023-12-20T00:47:53;5.30;99.90
6333;DHT22;3199;49.102;8.856;2023-12-20T00:50:19;5.30;99.90
6333;DHT22;3199;49.102;8.856;2023-12-20T00:52:44;5.20;99.90
6333;DHT22;3199;49.102;8.856;2023-12-20T00:55:10;5.30;99.90
6333;DHT22;3199;49.102;8.856;2023-12-20T00:57:35;5.20;99.90
6333;DHT22;3199;49.102;8.856;2023-12-20T01:00:01;5.20;99.90
6333;DHT22;3199;49.102;8.856;2023-12-20T01:02:27;5.20;99.90
6333;DHT22;3199;49.102;8.856;2023-12-20T01:04:52;5.20;99.90
6333;DHT22;3199;49.102;8.856;2023-12-20T01:07:18;5.20;99.90
6333;DHT22;3199;49.102;8.856;2023-12-20T01:09:44;5.20;99.90
6333;DHT22;3199;49.102;8.856;2023-12-20T01:12:09;5.20;99.90
6333;DHT22;3199;49.102;8.856;2023-12-20T01:14:35;5.20;99.90
6333;DHT22;3199;49.102;8.856;2023-12-20T01:17:01;5.20;99.90
6333;DHT22;3199;49.102;8.856;2023-12-20T01:19:27;5.20;99.90
6333;DHT22;3199;49.102;8.856;2023-12-20T01:21:53;5.20;99.90
6333;DHT22;3199;49.102;8.856;2023-12-20T01:24:19;5.10;99.90
6333;DHT22;3199;49.102;8.856;2023-12-20T01:26:44;5.20;99.90
6333;DHT22;3199;49.102;8.856;2023-12-20T01:29:10;5.20;99.90
6333;DHT22;3199;49.102;8.856;2023-12-20T01:31:35;5.20;99.90
6333;DHT22;3199;49.102;8.856;2023-12-20T01:34:01;5.20;99.90
6333;DHT22;3199;49.102;8.856;2023-12-20T01:36:26;5.20;99.90
6333;DHT22;3199;49.102;8.856;2023-12-20T01:38:52;5.20;99.90
6333;DHT22;3199;49.102;8.856;2023-12-20T01:41:17;5.20;99.90
6333;DHT22;3199;49.102;8.856;2023-12-20T01:43:43;5.30;99.90
6333;DHT22;3199;49.102;8.856;2023-12-20T01:46:09;5.30;99.90
6333;DHT22;3199;49.102;8.856;2023-12-20T01:48:34;5.30;99.90
6333;DHT22;3199;49.102;8.856;2023-12-20T01:51:02;5.20;99.90
6333;DHT22;3199;49.102;8.856;2023-12-20T01:53:28;5.30;99.90
6333;DHT22;3199;49.102;8.856;2023-12-20T01:55:55;5.30;99.90
6333;DHT22;3199;49.102;8.856;2023-12-20T01:58:22;5.30;99.90
6333;DHT22;3199;49.102;8.856;2023-12-20T02:00:48;5.40;99.90
6333;DHT22;3199;49.102;8.856;2023-12-20T02:03:14;5.40;99.90
6333;DHT22;3199;49.102;8.856;2023-12-20T02:05:40;5.40;99.90
6333;DHT22;3199;49.102;8.856;2023-12-20T02:08:06;5.40;99.90
6333;DHT22;3199;49.102;8.856;2023-12-20T02:10:32;5.40;99.90
6333;DHT22;3199;49.102;8.856;2023-12-20T02:12:57;5.40;99.90
6333;DHT22;3199;49.102;8.856;2023-12-20T02:15:24;5.40;99.90
6333;DHT22;3199;49.102;8.856;2023-12-20T02:17:49;5.40;99.90
6333;DHT22;3199;49.102;8.856;2023-12-20T02:20:15;5.40;99.90
6333;DHT22;3199;49.102;8.856;2023-12-20T02:22:41;5.40;99.90
6333;DHT22;3199;49.102;8.856;2023-12-20T02:25:07;5.40;99.90
6333;DHT22;3199;49.102;8.856;2023-12-20T02:27:32;5.40;99.90
6333;DHT22;3199;49.102;8.856;2023-12-20T02:29:58;5.40;99.90
6333;DHT22;3199;49.102;8.856;2023-12-20T02:32:24;5.40;99.90
6333;DHT22;3199;49.102;8.856;2023-12-20T02:34:54;5.40;99.90
6333;DHT22;3199;49.102;8.856;2023-12-20T02:37:20;5.40;99.90
6333;DHT22;3199;49.102;8.856;2023-12-20T02:39:45;5.40;99.90
6333;DHT22;3199;49.102;8.856;2023-12-20T02:42:11;5.40;99.90
6333;DHT22;3199;49.102;8.856;2023-12-20T02:44:36;5.40;99.90
6333;DHT22;3199;49.102;8.856;2023-12-20T02:47:02;5.40;99.90
6333;DHT22;3199;49.102;8.856;2023-12-20T02:49:28;5.40;99.90
6333;DHT22;3199;49.102;8.856;2023-12-20T02:51:53;5.40;99.90
6333;DHT22;3199;49.102;8.856;2023-12-20T02:54:19;5.40;99.90
6333;DHT22;3199;49.102;8.856;2023-12-20T02:56:44;5.40;99.90
6333;DHT22;3199;49.102;8.856;2023-12-20T02:59:10;5.40;99.90
6333;DHT22;3199;49.102;8.856;2023-12-20T03:01:42;5.40;99.90
6333;DHT22;3199;49.102;8.856;2023-12-20T03:04:08;5.40;99.90
6333;DHT22;3199;49.102;8.856;2023-12-20T03:06:33;5.40;99.90
6333;DHT22;3199;49.102;8.856;2023-12-20T03:08:59;5.40;99.90
6333;DHT22;3199;49.102;8.856;2023-12-20T03:11:27;5.40;99.90
6333;DHT22;3199;49.102;8.856;2023-12-20T03:13:53;5.40;99.90
6333;DHT22;3199;49.102;8.856;2023-12-20T03:16:18;5.40;99.90
6333;DHT22;3199;49.102;8.856;2023-12-20T03:18:44;5.40;99.90
6333;DHT22;3199;49.102;8.856;2023-12-20T03:21:09;5.40;99.90
6333;DHT22;3199;49.102;8.856;2023-12-20T03:23:35;5.40;99.90
6333;DHT22;3199;49.102;8.856;2023-12-20T03:26:00;5.40;99.90
6333;DHT22;3199;49.102;8.856;2023-12-20T03:28:27;5.40;99.90
6333;DHT22;3199;49.102;8.856;2023-12-20T03:30:52;5.40;99.90
6333;DHT22;3199;49.102;8.856;2023-12-20T03:33:18;5.40;99.90
6333;DHT22;3199;49.102;8.856;2023-12-20T03:35:44;5.40;99.90
6333;DHT22;3199;49.102;8.856;2023-12-20T03:38:09;5.40;99.90
6333;DHT22;3199;49.102;8.856;2023-12-20T03:40:35;5.30;99.90
6333;DHT22;3199;49.102;8.856;2023-12-20T03:43:01;5.30;99.90
6333;DHT22;3199;49.102;8.856;2023-12-20T03:45:26;5.30;99.90
6333;DHT22;3199;49.102;8.856;2023-12-20T03:47:52;5.30;99.90
6333;DHT22;3199;49.102;8.856;2023-12-20T03:50:22;5.30;99.90
6333;DHT22;3199;49.102;8.856;2023-12-20T03:52:47;5.30;99.90
6333;DHT22;3199;49.102;8.856;2023-12-20T03:55:13;5.30;99.90
6333;DHT22;3199;49.102;8.856;2023-12-20T03:57:38;5.30;99.90
6333;DHT22;3199;49.102;8.856;2023-12-20T04:00:04;5.30;99.90
6333;DHT22;3199;49.102;8.856;2023-12-20T04:02:31;5.30;99.90
6333;DHT22;3199;49.102;8.856;2023-12-20T04:04:56;5.30;99.90
6333;DHT22;3199;49.102;8.856;2023-12-20T04:07:22;5.30;99.90
6333;DHT22;3199;49.102;8.856;2023-12-20T04:09:47;5.30;99.90
6333;DHT22;3199;49.102;8.856;2023-12-20T04:12:13;5.30;99.90
6333;DHT22;3199;49.102;8.856;2023-12-20T04:14:39;5.30;99.90
6333;DHT22;3199;49.102;8.856;2023-12-20T04:17:05;5.30;99.90
6333;DHT22;3199;49.102;8.856;2023-12-20T04:19:30;5.30;99.90
6333;DHT22;3199;49.102;8.856;2023-12-20T04:21:56;5.20;99.90
6333;DHT22;3199;49.102;8.856;2023-12-20T04:24:21;5.30;99.90
6333;DHT22;3199;49.102;8.856;2023-12-20T04:26:47;5.30;99.90
6333;DHT22;3199;49.102;8.856;2023-12-20T04:29:13;5.30;99.90
6333;DHT22;3199;49.102;8.856;2023-12-20T04:31:39;5.30;99.90
6333;DHT22;3199;49.102;8.856;2023-12-20T04:34:04;5.40;99.90
6333;DHT22;3199;49.102;8.856;2023-12-20T04:36:29;5.30;99.90
6333;DHT22;3199;49.102;8.856;2023-12-20T04:38:55;5.30;99.90
6333;DHT22;3199;49.102;8.856;2023-12-20T04:41:21;5.40;99.90
6333;DHT22;3199;49.102;8.856;2023-12-20T04:43:46;5.30;99.90
6333;DHT22;3199;49.102;8.856;2023-12-20T04:46:12;5.30;99.90
6333;DHT22;3199;49.102;8.856;2023-12-20T04:48:37;5.40;99.90
6333;DHT22;3199;49.102;8.856;2023-12-20T04:51:03;5.40;99.90
6333;DHT22;3199;49.102;8.856;2023-12-20T04:53:28;5.40;99.90
6333;DHT22;3199;49.102;8.856;2023-12-20T04:55:54;5.40;99.90
6333;DHT22;3199;49.102;8.856;2023-12-20T04:58:19;5.40;99.90
6333;DHT22;3199;49.102;8.856;2023-12-20T05:00:45;5.40;99.90
6333;DHT22;3199;49.102;8.856;2023-12-20T05:03:10;5.40;99.90
6333;DHT22;3199;49.102;8.856;2023-12-20T05:05:36;5.40;99.90
6333;DHT22;3199;49.102;8.856;2023-12-20T05:08:01;5.40;99.90
6333;DHT22;3199;49.102;8.856;2023-12-20T05:10:27;5.40;99.90
6333;DHT22;3199;49.102;8.856;2023-12-20T05:12:53;5.40;99.90
6333;DHT22;3199;49.102;8.856;2023-12-20T05:15:18;5.40;99.90
6333;DHT22;3199;49.102;8.856;2023-12-20T05:17:44;5.40;99.90
6333;DHT22;3199;49.102;8.856;2023-12-20T05:20:10;5.40;99.90
6333;DHT22;3199;49.102;8.856;2023-12-20T05:22:36;5.40;99.90
6333;DHT22;3199;49.102;8.856;2023-12-20T05:25:01;5.40;99.90
6333;DHT22;3199;49.102;8.856;2023-12-20T05:27:27;5.40;99.90
6333;DHT22;3199;49.102;8.856;2023-12-20T05:29:52;5.40;99.90
6333;DHT22;3199;49.102;8.856;2023-12-20T05:32:18;5.40;99.90
6333;DHT22;3199;49.102;8.856;2023-12-20T05:34:43;5.30;99.90
6333;DHT22;3199;49.102;8.856;2023-12-20T05:37:09;5.30;99.90
6333;DHT22;3199;49.102;8.856;2023-12-20T05:39:34;5.40;99.90
6333;DHT22;3199;49.102;8.856;2023-12-20T05:42:00;5.30;99.90
6333;DHT22;3199;49.102;8.856;2023-12-20T05:44:25;5.30;99.90
6333;DHT22;3199;49.102;8.856;2023-12-20T05:46:51;5.30;99.90
6333;DHT22;3199;49.102;8.856;2023-12-20T05:49:17;5.30;99.90
6333;DHT22;3199;49.102;8.856;2023-12-20T05:51:42;5.40;99.90
6333;DHT22;3199;49.102;8.856;2023-12-20T05:54:09;5.40;99.90
6333;DHT22;3199;49.102;8.856;2023-12-20T05:56:34;5.40;99.90
6333;DHT22;3199;49.102;8.856;2023-12-20T05:58:59;5.40;99.90
6333;DHT22;3199;49.102;8.856;2023-12-20T06:01:25;5.40;99.90
6333;DHT22;3199;49.102;8.856;2023-12-20T06:03:51;5.40;99.90
6333;DHT22;3199;49.102;8.856;2023-12-20T06:06:16;5.40;99.90
6333;DHT22;3199;49.102;8.856;2023-12-20T06:08:43;5.40;99.90
6333;DHT22;3199;49.102;8.856;2023-12-20T06:11:08;5.40;99.90
6333;DHT22;3199;49.102;8.856;2023-12-20T06:13:34;5.40;99.90
6333;DHT22;3199;49.102;8.856;2023-12-20T06:16:01;5.40;99.90
6333;DHT22;3199;49.102;8.856;2023-12-20T06:18:26;5.40;99.90
6333;DHT22;3199;49.102;8.856;2023-12-20T06:20:52;5.40;99.90
6333;DHT22;3199;49.102;8.856;2023-12-20T06:23:17;5.40;99.90
6333;DHT22;3199;49.102;8.856;2023-12-20T06:25:44;5.40;99.90
6333;DHT22;3199;49.102;8.856;2023-12-20T06:28:09;5.40;99.90
6333;DHT22;3199;49.102;8.856;2023-12-20T06:30:35;5.40;99.90
6333;DHT22;3199;49.102;8.856;2023-12-20T06:33:01;5.40;99.90
6333;DHT22;3199;49.102;8.856;2023-12-20T06:35:26;5.40;99.90
6333;DHT22;3199;49.102;8.856;2023-12-20T06:37:52;5.40;99.90
6333;DHT22;3199;49.102;8.856;2023-12-20T06:40:18;5.40;99.90
6333;DHT22;3199;49.102;8.856;2023-12-20T06:42:44;5.40;99.90
6333;DHT22;3199;49.102;8.856;2023-12-20T06:45:10;5.40;99.90
6333;DHT22;3199;49.102;8.856;2023-12-20T06:47:35;5.40;99.90
6333;DHT22;3199;49.102;8.856;2023-12-20T06:50:01;5.40;99.90
6333;DHT22;3199;49.102;8.856;2023-12-20T06:52:26;5.40;99.90
6333;DHT22;3199;49.102;8.856;2023-12-20T06:54:52;5.40;99.90
6333;DHT22;3199;49.102;8.856;2023-12-20T06:57:18;5.40;99.90
6333;DHT22;3199;49.102;8.856;2023-12-20T06:59:45;5.40;99.90
6333;DHT22;3199;49.102;8.856;2023-12-20T07:02:10;5.40;99.90
6333;DHT22;3199;49.102;8.856;2023-12-20T07:04:39;5.50;99.90
6333;DHT22;3199;49.102;8.856;2023-12-20T07:07:05;5.40;99.90
6333;DHT22;3199;49.102;8.856;2023-12-20T07:09:32;5.50;99.90
6333;DHT22;3199;49.102;8.856;2023-12-20T07:11:58;5.50;99.90
6333;DHT22;3199;49.102;8.856;2023-12-20T07:14:23;5.40;99.90
6333;DHT22;3199;49.102;8.856;2023-12-20T07:16:49;5.40;99.90
6333;DHT22;3199;49.102;8.856;2023-12-20T07:19:14;5.40;99.90
6333;DHT22;3199;49.102;8.856;2023-12-20T07:21:40;5.40;99.90
6333;DHT22;3199;49.102;8.856;2023-12-20T07:24:05;5.40;99.90
6333;DHT22;3199;49.102;8.856;2023-12-20T07:26:31;5.40;99.90
6333;DHT22;3199;49.102;8.856;2023-12-20T07:28:56;5.30;99.90
6333;DHT22;3199;49.102;8.856;2023-12-20T07:31:24;5.30;99.90
6333;DHT22;3199;49.102;8.856;2023-12-20T07:33:49;5.30;99.90
6333;DHT22;3199;49.102;8.856;2023-12-20T07:36:15;5.30;99.90
6333;DHT22;3199;49.102;8.856;2023-12-20T07:38:40;5.30;99.90
6333;DHT22;3199;49.102;8.856;2023-12-20T07:41:09;5.30;99.90
6333;DHT22;3199;49.102;8.856;2023-12-20T07:43:35;5.30;99.90
6333;DHT22;3199;49.102;8.856;2023-12-20T07:46:08;5.30;99.90
6333;DHT22;3199;49.102;8.856;2023-12-20T07:48:36;5.20;99.90
6333;DHT22;3199;49.102;8.856;2023-12-20T07:51:03;5.20;99.90
6333;DHT22;3199;49.102;8.856;2023-12-20T07:53:29;5.20;99.90
6333;DHT22;3199;49.102;8.856;2023-12-20T07:55:55;5.20;99.90
6333;DHT22;3199;49.102;8.856;2023-12-20T07:58:21;5.20;99.90
6333;DHT22;3199;49.102;8.856;2023-12-20T08:00:47;5.20;99.90
6333;DHT22;3199;49.102;8.856;2023-12-20T08:03:12;5.20;99.90
6333;DHT22;3199;49.102;8.856;2023-12-20T08:05:38;5.20;99.90
6333;DHT22;3199;49.102;8.856;2023-12-20T08:08:06;5.20;99.90
6333;DHT22;3199;49.102;8.856;2023-12-20T08:10:31;5.20;99.90
6333;DHT22;3199;49.102;8.856;2023-12-20T08:12:57;5.20;99.90
6333;DHT22;3199;49.102;8.856;2023-12-20T08:15:23;5.20;99.90
6333;DHT22;3199;49.102;8.856;2023-12-20T08:17:49;5.20;99.90
6333;DHT22;3199;49.102;8.856;2023-12-20T08:20:16;5.30;99.90
6333;DHT22;3199;49.102;8.856;2023-12-20T08:22:42;5.30;99.90
6333;DHT22;3199;49.102;8.856;2023-12-20T08:25:07;5.30;99.90
6333;DHT22;3199;49.102;8.856;2023-12-20T08:27:36;5.40;99.90
6333;DHT22;3199;49.102;8.856;2023-12-20T08:30:01;5.40;99.90
6333;DHT22;3199;49.102;8.856;2023-12-20T08:32:27;5.40;99.90
6333;DHT22;3199;49.102;8.856;2023-12-20T08:34:53;5.40;99.90
6333;DHT22;3199;49.102;8.856;2023-12-20T08:37:18;5.50;99.90
6333;DHT22;3199;49.102;8.856;2023-12-20T08:39:44;5.50;99.90
6333;DHT22;3199;49.102;8.856;2023-12-20T08:42:10;5.50;99.90
6333;DHT22;3199;49.102;8.856;2023-12-20T08:44:35;5.60;99.90
6333;DHT22;3199;49.102;8.856;2023-12-20T08:47:01;5.60;99.90
6333;DHT22;3199;49.102;8.856;2023-12-20T08:49:27;5.60;99.90
6333;DHT22;3199;49.102;8.856;2023-12-20T08:51:53;5.70;99.90
6333;DHT22;3199;49.102;8.856;2023-12-20T08:54:18;5.70;99.90
6333;DHT22;3199;49.102;8.856;2023-12-20T08:56:45;5.60;99.90
6333;DHT22;3199;49.102;8.856;2023-12-20T08:59:11;5.70;99.90
6333;DHT22;3199;49.102;8.856;2023-12-20T09:01:37;5.70;99.90
6333;DHT22;3199;49.102;8.856;2023-12-20T09:04:03;5.60;99.90
6333;DHT22;3199;49.102;8.856;2023-12-20T09:06:28;5.60;99.90
6333;DHT22;3199;49.102;8.856;2023-12-20T09:08:54;5.60;99.90
6333;DHT22;3199;49.102;8.856;2023-12-20T09:11:19;5.70;99.90
6333;DHT22;3199;49.102;8.856;2023-12-20T09:13:45;5.80;99.90
6333;DHT22;3199;49.102;8.856;2023-12-20T09:16:10;5.90;99.90
6333;DHT22;3199;49.102;8.856;2023-12-20T09:18:36;6.00;99.90
6333;DHT22;3199;49.102;8.856;2023-12-20T09:21:01;6.10;99.90
6333;DHT22;3199;49.102;8.856;2023-12-20T09:23:27;6.30;99.90
6333;DHT22;3199;49.102;8.856;2023-12-20T09:25:53;6.40;99.90
6333;DHT22;3199;49.102;8.856;2023-12-20T09:28:19;6.50;99.90
6333;DHT22;3199;49.102;8.856;2023-12-20T09:30:44;6.50;99.90
6333;DHT22;3199;49.102;8.856;2023-12-20T09:33:12;6.40;99.90
6333;DHT22;3199;49.102;8.856;2023-12-20T09:35:37;6.40;99.90
6333;DHT22;3199;49.102;8.856;2023-12-20T09:38:03;6.30;99.90
6333;DHT22;3199;49.102;8.856;2023-12-20T09:40:32;6.20;99.90
6333;DHT22;3199;49.102;8.856;2023-12-20T09:43:04;6.20;99.90
6333;DHT22;3199;49.102;8.856;2023-12-20T09:45:31;6.20;99.90
6333;DHT22;3199;49.102;8.856;2023-12-20T09:47:57;6.20;99.90
6333;DHT22;3199;49.102;8.856;2023-12-20T09:50:23;6.20;99.90
6333;DHT22;3199;49.102;8.856;2023-12-20T09:52:53;6.10;99.90
6333;DHT22;3199;49.102;8.856;2023-12-20T09:55:19;6.10;99.90
6333;DHT22;3199;49.102;8.856;2023-12-20T09:57:46;6.00;99.90
6333;DHT22;3199;49.102;8.856;2023-12-20T10:00:12;6.00;99.90
6333;DHT22;3199;49.102;8.856;2023-12-20T10:02:47;6.00;99.90
6333;DHT22;3199;49.102;8.856;2023-12-20T10:05:16;6.00;99.90
6333;DHT22;3199;49.102;8.856;2023-12-20T10:07:44;6.00;99.90
6333;DHT22;3199;49.102;8.856;2023-12-20T10:10:10;6.00;99.90
6333;DHT22;3199;49.102;8.856;2023-12-20T10:12:37;6.00;99.90
6333;DHT22;3199;49.102;8.856;2023-12-20T10:15:04;6.00;99.90
6333;DHT22;3199;49.102;8.856;2023-12-20T10:17:30;5.90;99.90
6333;DHT22;3199;49.102;8.856;2023-12-20T10:19:55;5.90;99.90
6333;DHT22;3199;49.102;8.856;2023-12-20T10:22:21;5.90;99.90
6333;DHT22;3199;49.102;8.856;2023-12-20T10:24:47;5.80;99.90
6333;DHT22;3199;49.102;8.856;2023-12-20T10:27:12;5.80;99.90
6333;DHT22;3199;49.102;8.856;2023-12-20T10:29:38;5.80;99.90
6333;DHT22;3199;49.102;8.856;2023-12-20T10:32:26;5.90;99.90
6333;DHT22;3199;49.102;8.856;2023-12-20T10:34:53;5.90;99.90
6333;DHT22;3199;49.102;8.856;2023-12-20T10:37:19;6.00;99.90
6333;DHT22;3199;49.102;8.856;2023-12-20T10:39:50;6.00;99.90
6333;DHT22;3199;49.102;8.856;2023-12-20T10:42:18;6.10;99.90
6333;DHT22;3199;49.102;8.856;2023-12-20T10:44:46;6.10;99.90
6333;DHT22;3199;49.102;8.856;2023-12-20T10:47:13;6.10;99.90
6333;DHT22;3199;49.102;8.856;2023-12-20T10:49:39;6.10;99.90
6333;DHT22;3199;49.102;8.856;2023-12-20T10:52:05;6.10;99.90
6333;DHT22;3199;49.102;8.856;2023-12-20T10:54:32;6.10;99.90
6333;DHT22;3199;49.102;8.856;2023-12-20T10:56:58;6.10;99.90
6333;DHT22;3199;49.102;8.856;2023-12-20T10:59:24;6.20;99.90
6333;DHT22;3199;49.102;8.856;2023-12-20T11:01:54;6.20;99.90
6333;DHT22;3199;49.102;8.856;2023-12-20T11:04:35;6.20;99.90
6333;DHT22;3199;49.102;8.856;2023-12-20T11:07:32;6.20;99.90
6333;DHT22;3199;49.102;8.856;2023-12-20T11:10:10;6.20;99.90
6333;DHT22;3199;49.102;8.856;2023-12-20T11:12:52;6.20;99.90
6333;DHT22;3199;49.102;8.856;2023-12-20T11:15:19;6.20;99.90
6333;DHT22;3199;49.102;8.856;2023-12-20T11:17:45;6.30;99.90
6333;DHT22;3199;49.102;8.856;2023-12-20T11:20:14;6.40;99.90
6333;DHT22;3199;49.102;8.856;2023-12-20T11:22:52;6.40;99.90
6333;DHT22;3199;49.102;8.856;2023-12-20T11:25:18;6.50;99.90
6333;DHT22;3199;49.102;8.856;2023-12-20T11:27:43;6.40;99.90
6333;DHT22;3199;49.102;8.856;2023-12-20T11:30:10;6.50;99.90
6333;DHT22;3199;49.102;8.856;2023-12-20T11:32:37;6.50;99.90
6333;DHT22;3199;49.102;8.856;2023-12-20T11:37:38;6.50;99.90
6333;DHT22;3199;49.102;8.856;2023-12-20T11:40:11;6.50;99.90
6333;DHT22;3199;49.102;8.856;2023-12-20T11:42:43;6.50;99.90
6333;DHT22;3199;49.102;8.856;2023-12-20T11:45:21;6.60;99.90
6333;DHT22;3199;49.102;8.856;2023-12-20T11:47:48;6.50;99.90
6333;DHT22;3199;49.102;8.856;2023-12-20T11:50:17;6.50;99.90
6333;DHT22;3199;49.102;8.856;2023-12-20T11:52:43;6.60;99.90
6333;DHT22;3199;49.102;8.856;2023-12-20T11:55:08;6.60;99.90
6333;DHT22;3199;49.102;8.856;2023-12-20T11:57:34;6.70;99.90
6333;DHT22;3199;49.102;8.856;2023-12-20T12:00:02;6.70;99.90
6333;DHT22;3199;49.102;8.856;2023-12-20T12:02:28;6.70;99.90
6333;DHT22;3199;49.102;8.856;2023-12-20T12:04:53;6.60;99.90
6333;DHT22;3199;49.102;8.856;2023-12-20T12:07:19;6.60;99.90
6333;DHT22;3199;49.102;8.856;2023-12-20T12:09:45;6.60;99.90
6333;DHT22;3199;49.102;8.856;2023-12-20T12:12:12;6.60;99.90
6333;DHT22;3199;49.102;8.856;2023-12-20T12:14:38;6.60;99.90
6333;DHT22;3199;49.102;8.856;2023-12-20T12:17:10;6.50;99.90
6333;DHT22;3199;49.102;8.856;2023-12-20T12:19:36;6.40;99.90
6333;DHT22;3199;49.102;8.856;2023-12-20T12:22:15;6.40;99.90
6333;DHT22;3199;49.102;8.856;2023-12-20T12:24:43;6.30;99.90
6333;DHT22;3199;49.102;8.856;2023-12-20T12:27:09;6.40;99.90
6333;DHT22;3199;49.102;8.856;2023-12-20T12:29:35;6.40;99.90
6333;DHT22;3199;49.102;8.856;2023-12-20T12:32:04;6.50;99.90
6333;DHT22;3199;49.102;8.856;2023-12-20T12:34:30;6.50;99.90
6333;DHT22;3199;49.102;8.856;2023-12-20T12:36:56;6.60;99.90
6333;DHT22;3199;49.102;8.856;2023-12-20T12:39:23;6.60;99.90
6333;DHT22;3199;49.102;8.856;2023-12-20T12:41:53;6.60;99.90
6333;DHT22;3199;49.102;8.856;2023-12-20T12:44:18;6.50;99.90
6333;DHT22;3199;49.102;8.856;2023-12-20T12:46:46;6.50;99.90
6333;DHT22;3199;49.102;8.856;2023-12-20T12:49:11;6.40;99.90
6333;DHT22;3199;49.102;8.856;2023-12-20T12:51:37;6.30;99.90
6333;DHT22;3199;49.102;8.856;2023-12-20T12:54:02;6.30;99.90
6333;DHT22;3199;49.102;8.856;2023-12-20T12:56:29;6.20;99.90
6333;DHT22;3199;49.102;8.856;2023-12-20T12:58:54;6.10;99.90
6333;DHT22;3199;49.102;8.856;2023-12-20T13:01:20;6.10;99.90
6333;DHT22;3199;49.102;8.856;2023-12-20T13:03:47;6.10;99.90
6333;DHT22;3199;49.102;8.856;2023-12-20T13:06:13;6.10;99.90
6333;DHT22;3199;49.102;8.856;2023-12-20T13:08:38;6.10;99.90
6333;DHT22;3199;49.102;8.856;2023-12-20T13:11:04;6.10;99.90
6333;DHT22;3199;49.102;8.856;2023-12-20T13:13:30;6.00;99.90
6333;DHT22;3199;49.102;8.856;2023-12-20T13:15:56;6.00;99.90
6333;DHT22;3199;49.102;8.856;2023-12-20T13:18:22;6.00;99.90
6333;DHT22;3199;49.102;8.856;2023-12-20T13:20:49;5.90;99.90
6333;DHT22;3199;49.102;8.856;2023-12-20T13:23:14;5.90;99.90
6333;DHT22;3199;49.102;8.856;2023-12-20T13:25:41;5.90;99.90
6333;DHT22;3199;49.102;8.856;2023-12-20T13:28:06;5.90;99.90
6333;DHT22;3199;49.102;8.856;2023-12-20T13:30:33;5.80;99.90
6333;DHT22;3199;49.102;8.856;2023-12-20T13:32:59;5.80;99.90
6333;DHT22;3199;49.102;8.856;2023-12-20T13:35:25;5.80;99.90
6333;DHT22;3199;49.102;8.856;2023-12-20T13:37:50;5.80;99.90
6333;DHT22;3199;49.102;8.856;2023-12-20T13:40:16;5.80;99.90
6333;DHT22;3199;49.102;8.856;2023-12-20T13:42:41;5.80;99.90
6333;DHT22;3199;49.102;8.856;2023-12-20T13:45:07;5.80;99.90
6333;DHT22;3199;49.102;8.856;2023-12-20T13:47:33;5.80;99.90
6333;DHT22;3199;49.102;8.856;2023-12-20T13:49:59;5.80;99.90
6333;DHT22;3199;49.102;8.856;2023-12-20T13:52:24;5.80;99.90
6333;DHT22;3199;49.102;8.856;2023-12-20T13:54:50;5.80;99.90
6333;DHT22;3199;49.102;8.856;2023-12-20T13:57:15;5.80;99.90
6333;DHT22;3199;49.102;8.856;2023-12-20T13:59:41;5.70;99.90
6333;DHT22;3199;49.102;8.856;2023-12-20T14:02:06;5.70;99.90
6333;DHT22;3199;49.102;8.856;2023-12-20T14:04:32;5.70;99.90
6333;DHT22;3199;49.102;8.856;2023-12-20T14:06:58;5.60;99.90
6333;DHT22;3199;49.102;8.856;2023-12-20T14:09:24;5.70;99.90
6333;DHT22;3199;49.102;8.856;2023-12-20T14:11:50;5.70;99.90
6333;DHT22;3199;49.102;8.856;2023-12-20T14:14:15;5.70;99.90
6333;DHT22;3199;49.102;8.856;2023-12-20T14:16:41;5.70;99.90
6333;DHT22;3199;49.102;8.856;2023-12-20T14:19:10;5.70;99.90
6333;DHT22;3199;49.102;8.856;2023-12-20T14:21:36;5.70;99.90
6333;DHT22;3199;49.102;8.856;2023-12-20T14:24:01;5.70;99.90
6333;DHT22;3199;49.102;8.856;2023-12-20T14:26:27;5.70;99.90
6333;DHT22;3199;49.102;8.856;2023-12-20T14:28:53;5.70;99.90
6333;DHT22;3199;49.102;8.856;2023-12-20T14:31:19;5.60;99.90
6333;DHT22;3199;49.102;8.856;2023-12-20T14:33:44;5.60;99.90
6333;DHT22;3199;49.102;8.856;2023-12-20T14:36:11;5.60;99.90
6333;DHT22;3199;49.102;8.856;2023-12-20T14:38:36;5.60;99.90
6333;DHT22;3199;49.102;8.856;2023-12-20T14:41:02;5.60;99.90
6333;DHT22;3199;49.102;8.856;2023-12-20T14:43:34;5.50;99.90
6333;DHT22;3199;49.102;8.856;2023-12-20T14:45:59;5.50;99.90
6333;DHT22;3199;49.102;8.856;2023-12-20T14:48:25;5.50;99.90
6333;DHT22;3199;49.102;8.856;2023-12-20T14:50:52;5.50;99.90
6333;DHT22;3199;49.102;8.856;2023-12-20T14:53:18;5.40;99.90
6333;DHT22;3199;49.102;8.856;2023-12-20T14:55:44;5.40;99.90
6333;DHT22;3199;49.102;8.856;2023-12-20T14:58:10;5.40;99.90
6333;DHT22;3199;49.102;8.856;2023-12-20T15:00:35;5.40;99.90
6333;DHT22;3199;49.102;8.856;2023-12-20T15:03:01;5.40;99.90
6333;DHT22;3199;49.102;8.856;2023-12-20T15:05:27;5.40;99.90
6333;DHT22;3199;49.102;8.856;2023-12-20T15:07:52;5.40;99.90
6333;DHT22;3199;49.102;8.856;2023-12-20T15:10:18;5.40;99.90
6333;DHT22;3199;49.102;8.856;2023-12-20T15:12:44;5.30;99.90
6333;DHT22;3199;49.102;8.856;2023-12-20T15:15:11;5.30;99.90
6333;DHT22;3199;49.102;8.856;2023-12-20T15:17:36;5.30;99.90
6333;DHT22;3199;49.102;8.856;2023-12-20T15:20:03;5.20;99.90
6333;DHT22;3199;49.102;8.856;2023-12-20T15:22:30;5.20;99.90
6333;DHT22;3199;49.102;8.856;2023-12-20T15:24:55;5.10;99.90
6333;DHT22;3199;49.102;8.856;2023-12-20T15:27:21;5.30;99.90
6333;DHT22;3199;49.102;8.856;2023-12-20T15:29:46;5.70;99.90
6333;DHT22;3199;49.102;8.856;2023-12-20T15:32:12;5.70;99.90
6333;DHT22;3199;49.102;8.856;2023-12-20T15:34:37;5.60;99.90
6333;DHT22;3199;49.102;8.856;2023-12-20T15:37:03;5.50;99.90
6333;DHT22;3199;49.102;8.856;2023-12-20T15:39:29;5.40;99.90
6333;DHT22;3199;49.102;8.856;2023-12-20T15:41:55;5.30;99.90
6333;DHT22;3199;49.102;8.856;2023-12-20T15:44:20;5.20;99.90
6333;DHT22;3199;49.102;8.856;2023-12-20T15:46:46;5.20;99.90
6333;DHT22;3199;49.102;8.856;2023-12-20T15:49:11;5.20;99.90
6333;DHT22;3199;49.102;8.856;2023-12-20T15:51:37;5.20;99.90
6333;DHT22;3199;49.102;8.856;2023-12-20T15:54:03;5.20;99.90
6333;DHT22;3199;49.102;8.856;2023-12-20T15:56:32;5.20;99.90
6333;DHT22;3199;49.102;8.856;2023-12-20T15:58:58;5.20;99.90
6333;DHT22;3199;49.102;8.856;2023-12-20T16:01:24;5.20;99.90
6333;DHT22;3199;49.102;8.856;2023-12-20T16:03:50;5.20;99.90
6333;DHT22;3199;49.102;8.856;2023-12-20T16:06:15;5.20;99.90
6333;DHT22;3199;49.102;8.856;2023-12-20T16:08:41;5.20;99.90
6333;DHT22;3199;49.102;8.856;2023-12-20T16:11:07;5.30;99.90
6333;DHT22;3199;49.102;8.856;2023-12-20T16:13:33;5.30;99.90